sensor_id;sensor_type;location;lat;lon;timestamp;temperature;humidity
1686;DHT22;840;47.980;7.830;2023-07-13T00:02:07;23.60;99.90
1686;DHT22;840;47.980;7.830;2023-07-13T00:04:35;23.50;99.90
1686;DHT22;840;47.980;7.830;2023-07-13T00:07:02;23.40;99.90
1686;DHT22;840;47.980;7.830;2023-07-13T00:09:29;23.40;99.90
1686;DHT22;840;47.980;7.830;2023-07-13T00:11:57;23.40;99.90
1686;DHT22;840;47.980;7.830;2023-07-13T00:14:25;23.40;99.90
1686;DHT22;840;47.980;7.830;2023-07-13T00:16:52;23.30;99.90
1686;DHT22;840;47.980;7.830;2023-07-13T00:19:20;23.40;99.90
1686;DHT22;840;47.980;7.830;2023-07-13T00:21:48;23.40;99.90
1686;DHT22;840;47.980;7.830;2023-07-13T00:24:17;23.40;99.90
1686;DHT22;840;47.980;7.830;2023-07-13T00:26:48;23.40;99.90
1686;DHT22;840;47.980;7.830;2023-07-13T00:29:15;23.40;99.90
1686;DHT22;840;47.980;7.830;2023-07-13T00:31:43;23.30;99.90
1686;DHT22;840;47.980;7.830;2023-07-13T00:34:10;23.30;99.90
1686;DHT22;840;47.980;7.830;2023-07-13T00:36:37;23.40;99.90
1686;DHT22;840;47.980;7.830;2023-07-13T00:39:05;23.40;99.90
1686;DHT22;840;47.980;7.830;2023-07-13T00:41:34;23.50;99.90
1686;DHT22;840;47.980;7.830;2023-07-13T00:44:02;23.50;99.90
1686;DHT22;840;47.980;7.830;2023-07-13T00:46:30;23.60;99.90
1686;DHT22;840;47.980;7.830;2023-07-13T00:48:59;23.60;99.90
1686;DHT22;840;47.980;7.830;2023-07-13T00:51:31;23.60;99.90
1686;DHT22;840;47.980;7.830;2023-07-13T00:54:01;23.60;99.90
1686;DHT22;840;47.980;7.830;2023-07-13T00:56:33;23.60;99.90
1686;DHT22;840;47.980;7.830;2023-07-13T00:59:03;23.60;99.90
1686;DHT22;840;47.980;7.830;2023-07-13T01:01:33;23.60;99.90
1686;DHT22;840;47.980;7.830;2023-07-13T01:03:59;23.60;99.90
1686;DHT22;840;47.980;7.830;2023-07-13T01:06:26;23.60;99.90
1686;DHT22;840;47.980;7.830;2023-07-13T01:08:53;23.60;99.90
1686;DHT22;840;47.980;7.830;2023-07-13T01:11:21;23.60;99.90
1686;DHT22;840;47.980;7.830;2023-07-13T01:13:49;23.50;99.90
1686;DHT22;840;47.980;7.830;2023-07-13T01:16:22;23.50;99.90
1686;DHT22;840;47.980;7.830;2023-07-13T01:18:50;23.40;99.90
1686;DHT22;840;47.980;7.830;2023-07-13T01:21:18;23.30;99.90
1686;DHT22;840;47.980;7.830;2023-07-13T01:23:45;23.20;99.90
1686;DHT22;840;47.980;7.830;2023-07-13T01:26:12;23.10;99.90
1686;DHT22;840;47.980;7.830;2023-07-13T01:28:39;23.00;99.90
1686;DHT22;840;47.980;7.830;2023-07-13T01:31:06;22.90;99.90
1686;DHT22;840;47.980;7.830;2023-07-13T01:33:34;22.90;99.90
1686;DHT22;840;47.980;7.830;2023-07-13T01:36:01;22.80;99.90
1686;DHT22;840;47.980;7.830;2023-07-13T01:38:29;22.80;99.90
1686;DHT22;840;47.980;7.830;2023-07-13T01:40:56;22.70;99.90
1686;DHT22;840;47.980;7.830;2023-07-13T01:43:23;22.60;99.90
1686;DHT22;840;47.980;7.830;2023-07-13T01:45:50;22.60;99.90
1686;DHT22;840;47.980;7.830;2023-07-13T01:48:47;22.50;99.90
1686;DHT22;840;47.980;7.830;2023-07-13T01:51:15;22.50;99.90
1686;DHT22;840;47.980;7.830;2023-07-13T01:53:44;22.40;99.90
1686;DHT22;840;47.980;7.830;2023-07-13T01:56:11;22.30;99.90
1686;DHT22;840;47.980;7.830;2023-07-13T01:58:38;22.20;99.90
1686;DHT22;840;47.980;7.830;2023-07-13T02:01:04;22.20;99.90
1686;DHT22;840;47.980;7.830;2023-07-13T02:03:31;22.10;99.90
1686;DHT22;840;47.980;7.830;2023-07-13T02:05:57;22.10;99.90
1686;DHT22;840;47.980;7.830;2023-07-13T02:08:25;22.20;99.90
1686;DHT22;840;47.980;7.830;2023-07-13T02:10:53;22.20;99.90
1686;DHT22;840;47.980;7.830;2023-07-13T02:13:20;22.20;99.90
1686;DHT22;840;47.980;7.830;2023-07-13T02:15:50;22.10;99.90
1686;DHT22;840;47.980;7.830;2023-07-13T02:18:17;22.10;99.90
1686;DHT22;840;47.980;7.830;2023-07-13T02:20:44;22.00;99.90
1686;DHT22;840;47.980;7.830;2023-07-13T02:23:11;22.00;99.90
1686;DHT22;840;47.980;7.830;2023-07-13T02:25:38;22.00;99.90
1686;DHT22;840;47.980;7.830;2023-07-13T02:28:06;21.90;99.90
1686;DHT22;840;47.980;7.830;2023-07-13T02:30:34;21.90;99.90
1686;DHT22;840;47.980;7.830;2023-07-13T02:33:02;21.90;99.90
1686;DHT22;840;47.980;7.830;2023-07-13T02:35:30;21.90;99.90
1686;DHT22;840;47.980;7.830;2023-07-13T02:37:57;21.90;99.90
1686;DHT22;840;47.980;7.830;2023-07-13T02:40:24;21.90;99.90
1686;DHT22;840;47.980;7.830;2023-07-13T02:42:51;21.90;99.90
1686;DHT22;840;47.980;7.830;2023-07-13T02:45:19;21.90;99.90
1686;DHT22;840;47.980;7.830;2023-07-13T02:47:45;21.90;99.90
1686;DHT22;840;47.980;7.830;2023-07-13T02:50:12;21.90;99.90
1686;DHT22;840;47.980;7.830;2023-07-13T02:52:39;22.00;99.90
1686;DHT22;840;47.980;7.830;2023-07-13T02:55:06;22.00;99.90
1686;DHT22;840;47.980;7.830;2023-07-13T02:57:34;21.90;99.90
1686;DHT22;840;47.980;7.830;2023-07-13T03:00:01;21.90;99.90
1686;DHT22;840;47.980;7.830;2023-07-13T03:02:32;21.90;99.90
1686;DHT22;840;47.980;7.830;2023-07-13T03:04:59;21.90;99.90
1686;DHT22;840;47.980;7.830;2023-07-13T03:07:26;21.90;99.90
1686;DHT22;840;47.980;7.830;2023-07-13T03:09:54;21.80;99.90
1686;DHT22;840;47.980;7.830;2023-07-13T03:12:22;21.80;99.90
1686;DHT22;840;47.980;7.830;2023-07-13T03:14:48;21.70;99.90
1686;DHT22;840;47.980;7.830;2023-07-13T03:17:15;21.60;99.90
1686;DHT22;840;47.980;7.830;2023-07-13T03:19:43;21.60;99.90
1686;DHT22;840;47.980;7.830;2023-07-13T03:22:10;21.60;99.90
1686;DHT22;840;47.980;7.830;2023-07-13T03:24:37;21.50;99.90
1686;DHT22;840;47.980;7.830;2023-07-13T03:27:04;21.50;99.90
1686;DHT22;840;47.980;7.830;2023-07-13T03:29:31;21.50;99.90
1686;DHT22;840;47.980;7.830;2023-07-13T03:31:58;21.50;99.90
1686;DHT22;840;47.980;7.830;2023-07-13T03:34:25;21.50;99.90
1686;DHT22;840;47.980;7.830;2023-07-13T03:36:55;21.40;99.90
1686;DHT22;840;47.980;7.830;2023-07-13T03:39:21;21.40;99.90
1686;DHT22;840;47.980;7.830;2023-07-13T03:41:49;21.40;99.90
1686;DHT22;840;47.980;7.830;2023-07-13T03:44:16;21.30;99.90
1686;DHT22;840;47.980;7.830;2023-07-13T03:46:43;21.30;99.90
1686;DHT22;840;47.980;7.830;2023-07-13T03:49:11;21.20;99.90
1686;DHT22;840;47.980;7.830;2023-07-13T03:51:38;21.20;99.90
1686;DHT22;840;47.980;7.830;2023-07-13T03:54:06;21.20;99.90
1686;DHT22;840;47.980;7.830;2023-07-13T03:56:34;21.20;99.90
1686;DHT22;840;47.980;7.830;2023-07-13T03:59:00;21.20;99.90
1686;DHT22;840;47.980;7.830;2023-07-13T04:01:27;21.10;99.90
1686;DHT22;840;47.980;7.830;2023-07-13T04:03:55;21.10;99.90
1686;DHT22;840;47.980;7.830;2023-07-13T04:06:25;21.10;99.90
1686;DHT22;840;47.980;7.830;2023-07-13T04:08:54;21.10;99.90
1686;DHT22;840;47.980;7.830;2023-07-13T04:11:25;21.10;99.90
1686;DHT22;840;47.980;7.830;2023-07-13T04:13:52;21.10;99.90
1686;DHT22;840;47.980;7.830;2023-07-13T04:16:19;21.10;99.90
1686;DHT22;840;47.980;7.830;2023-07-13T04:18:47;21.10;99.90
1686;DHT22;840;47.980;7.830;2023-07-13T04:21:15;21.20;99.90
1686;DHT22;840;47.980;7.830;2023-07-13T04:23:42;21.20;99.90
1686;DHT22;840;47.980;7.830;2023-07-13T04:26:09;21.30;99.90
1686;DHT22;840;47.980;7.830;2023-07-13T04:28:37;21.30;99.90
1686;DHT22;840;47.980;7.830;2023-07-13T04:31:04;21.30;99.90
1686;DHT22;840;47.980;7.830;2023-07-13T04:33:31;21.30;99.90
1686;DHT22;840;47.980;7.830;2023-07-13T04:35:58;21.30;99.90
1686;DHT22;840;47.980;7.830;2023-07-13T04:38:26;21.20;99.90
1686;DHT22;840;47.980;7.830;2023-07-13T04:40:57;21.30;99.90
1686;DHT22;840;47.980;7.830;2023-07-13T04:43:25;21.30;99.90
1686;DHT22;840;47.980;7.830;2023-07-13T04:45:53;21.30;99.90
1686;DHT22;840;47.980;7.830;2023-07-13T04:48:21;21.30;99.90
1686;DHT22;840;47.980;7.830;2023-07-13T04:50:53;21.30;99.90
1686;DHT22;840;47.980;7.830;2023-07-13T04:53:20;21.30;99.90
1686;DHT22;840;47.980;7.830;2023-07-13T04:55:46;21.20;99.90
1686;DHT22;840;47.980;7.830;2023-07-13T04:58:13;21.20;99.90
1686;DHT22;840;47.980;7.830;2023-07-13T05:00:40;21.20;99.90
1686;DHT22;840;47.980;7.830;2023-07-13T05:03:08;21.20;99.90
1686;DHT22;840;47.980;7.830;2023-07-13T05:05:36;21.10;99.90
1686;DHT22;840;47.980;7.830;2023-07-13T05:08:03;21.20;99.90
1686;DHT22;840;47.980;7.830;2023-07-13T05:10:30;21.20;99.90
1686;DHT22;840;47.980;7.830;2023-07-13T05:12:56;21.20;99.90
1686;DHT22;840;47.980;7.830;2023-07-13T05:15:23;21.20;99.90
1686;DHT22;840;47.980;7.830;2023-07-13T05:17:51;21.20;99.90
1686;DHT22;840;47.980;7.830;2023-07-13T05:20:20;21.10;99.90
1686;DHT22;840;47.980;7.830;2023-07-13T05:22:47;21.10;99.90
1686;DHT22;840;47.980;7.830;2023-07-13T05:25:14;21.10;99.90
1686;DHT22;840;47.980;7.830;2023-07-13T05:27:40;21.10;99.90
1686;DHT22;840;47.980;7.830;2023-07-13T05:30:08;21.10;99.90
1686;DHT22;840;47.980;7.830;2023-07-13T05:32:37;21.20;99.90
1686;DHT22;840;47.980;7.830;2023-07-13T05:35:04;21.30;99.90
1686;DHT22;840;47.980;7.830;2023-07-13T05:37:33;21.40;99.90
1686;DHT22;840;47.980;7.830;2023-07-13T05:40:00;21.40;99.90
1686;DHT22;840;47.980;7.830;2023-07-13T05:42:27;21.50;99.90
1686;DHT22;840;47.980;7.830;2023-07-13T05:44:56;21.50;99.90
1686;DHT22;840;47.980;7.830;2023-07-13T05:47:23;21.60;99.90
1686;DHT22;840;47.980;7.830;2023-07-13T05:49:50;21.60;99.90
1686;DHT22;840;47.980;7.830;2023-07-13T05:52:16;21.70;99.90
1686;DHT22;840;47.980;7.830;2023-07-13T05:54:45;21.70;99.90
1686;DHT22;840;47.980;7.830;2023-07-13T05:57:11;21.70;99.90
1686;DHT22;840;47.980;7.830;2023-07-13T05:59:38;21.80;99.90
1686;DHT22;840;47.980;7.830;2023-07-13T06:02:05;21.90;99.90
1686;DHT22;840;47.980;7.830;2023-07-13T06:04:34;22.00;99.90
1686;DHT22;840;47.980;7.830;2023-07-13T06:07:01;22.00;99.90
1686;DHT22;840;47.980;7.830;2023-07-13T06:09:27;22.10;99.90
1686;DHT22;840;47.980;7.830;2023-07-13T06:11:55;22.20;99.90
1686;DHT22;840;47.980;7.830;2023-07-13T06:14:22;22.20;99.90
1686;DHT22;840;47.980;7.830;2023-07-13T06:16:49;22.20;99.90
1686;DHT22;840;47.980;7.830;2023-07-13T06:19:15;22.20;99.90
1686;DHT22;840;47.980;7.830;2023-07-13T06:21:42;22.30;99.90
1686;DHT22;840;47.980;7.830;2023-07-13T06:24:09;22.30;99.90
1686;DHT22;840;47.980;7.830;2023-07-13T06:26:35;22.30;99.90
1686;DHT22;840;47.980;7.830;2023-07-13T06:29:04;22.20;99.90
1686;DHT22;840;47.980;7.830;2023-07-13T06:31:31;22.30;99.90
1686;DHT22;840;47.980;7.830;2023-07-13T06:33:58;22.30;99.90
1686;DHT22;840;47.980;7.830;2023-07-13T06:36:24;22.20;99.90
1686;DHT22;840;47.980;7.830;2023-07-13T06:38:51;22.30;99.90
1686;DHT22;840;47.980;7.830;2023-07-13T06:41:18;22.30;99.90
1686;DHT22;840;47.980;7.830;2023-07-13T06:43:47;22.40;99.90
1686;DHT22;840;47.980;7.830;2023-07-13T06:46:15;22.40;99.90
1686;DHT22;840;47.980;7.830;2023-07-13T06:48:42;22.40;99.90
1686;DHT22;840;47.980;7.830;2023-07-13T06:51:09;22.40;99.90
1686;DHT22;840;47.980;7.830;2023-07-13T06:53:36;22.40;99.90
1686;DHT22;840;47.980;7.830;2023-07-13T06:56:03;22.40;99.90
1686;DHT22;840;47.980;7.830;2023-07-13T06:58:30;22.50;99.90
1686;DHT22;840;47.980;7.830;2023-07-13T07:00:57;22.60;99.90
1686;DHT22;840;47.980;7.830;2023-07-13T07:03:25;22.60;99.90
1686;DHT22;840;47.980;7.830;2023-07-13T07:05:52;22.60;99.90
1686;DHT22;840;47.980;7.830;2023-07-13T07:08:19;22.60;99.90
1686;DHT22;840;47.980;7.830;2023-07-13T07:10:45;22.60;99.90
1686;DHT22;840;47.980;7.830;2023-07-13T07:13:12;22.60;99.90
1686;DHT22;840;47.980;7.830;2023-07-13T07:15:39;22.60;99.90
1686;DHT22;840;47.980;7.830;2023-07-13T07:18:05;22.50;99.90
1686;DHT22;840;47.980;7.830;2023-07-13T07:20:34;22.60;99.90
1686;DHT22;840;47.980;7.830;2023-07-13T07:23:01;22.60;99.90
1686;DHT22;840;47.980;7.830;2023-07-13T07:25:28;22.60;99.90
1686;DHT22;840;47.980;7.830;2023-07-13T07:27:57;22.70;99.90
1686;DHT22;840;47.980;7.830;2023-07-13T07:30:24;22.70;99.90
1686;DHT22;840;47.980;7.830;2023-07-13T07:32:50;22.70;99.90
1686;DHT22;840;47.980;7.830;2023-07-13T07:35:17;22.80;99.90
1686;DHT22;840;47.980;7.830;2023-07-13T07:37:46;22.80;99.90
1686;DHT22;840;47.980;7.830;2023-07-13T07:40:13;22.80;99.90
1686;DHT22;840;47.980;7.830;2023-07-13T07:42:40;22.80;99.90
1686;DHT22;840;47.980;7.830;2023-07-13T07:45:07;22.80;99.90
1686;DHT22;840;47.980;7.830;2023-07-13T07:47:36;22.90;99.90
1686;DHT22;840;47.980;7.830;2023-07-13T07:50:04;22.90;99.90
1686;DHT22;840;47.980;7.830;2023-07-13T07:52:31;23.00;99.90
1686;DHT22;840;47.980;7.830;2023-07-13T07:54:59;23.10;99.90
1686;DHT22;840;47.980;7.830;2023-07-13T07:57:26;23.10;99.90
1686;DHT22;840;47.980;7.830;2023-07-13T07:59:53;23.10;99.90
1686;DHT22;840;47.980;7.830;2023-07-13T08:02:20;23.20;99.90
1686;DHT22;840;47.980;7.830;2023-07-13T08:04:46;23.20;99.90
1686;DHT22;840;47.980;7.830;2023-07-13T08:07:13;23.20;99.90
1686;DHT22;840;47.980;7.830;2023-07-13T08:09:40;23.20;99.90
1686;DHT22;840;47.980;7.830;2023-07-13T08:12:08;23.20;99.90
1686;DHT22;840;47.980;7.830;2023-07-13T08:14:35;23.20;99.90
1686;DHT22;840;47.980;7.830;2023-07-13T08:17:04;23.10;99.90
1686;DHT22;840;47.980;7.830;2023-07-13T08:19:31;23.10;99.90
1686;DHT22;840;47.980;7.830;2023-07-13T08:21:57;23.10;99.90
1686;DHT22;840;47.980;7.830;2023-07-13T08:24:24;23.20;99.90
1686;DHT22;840;47.980;7.830;2023-07-13T08:26:51;23.20;99.90
1686;DHT22;840;47.980;7.830;2023-07-13T08:29:20;23.30;99.90
1686;DHT22;840;47.980;7.830;2023-07-13T08:31:47;23.30;99.90
1686;DHT22;840;47.980;7.830;2023-07-13T08:34:15;23.20;99.90
1686;DHT22;840;47.980;7.830;2023-07-13T08:36:42;23.20;99.90
1686;DHT22;840;47.980;7.830;2023-07-13T08:39:09;23.20;99.90
1686;DHT22;840;47.980;7.830;2023-07-13T08:41:36;23.30;99.90
1686;DHT22;840;47.980;7.830;2023-07-13T08:44:13;23.30;99.90
1686;DHT22;840;47.980;7.830;2023-07-13T08:46:47;23.30;99.90
1686;DHT22;840;47.980;7.830;2023-07-13T08:49:17;23.40;99.70
1686;DHT22;840;47.980;7.830;2023-07-13T08:51:47;23.40;99.70
1686;DHT22;840;47.980;7.830;2023-07-13T08:54:23;23.50;99.30
1686;DHT22;840;47.980;7.830;2023-07-13T08:56:54;23.70;99.30
1686;DHT22;840;47.980;7.830;2023-07-13T08:59:28;23.80;99.80
1686;DHT22;840;47.980;7.830;2023-07-13T09:02:20;24.00;99.90
1686;DHT22;840;47.980;7.830;2023-07-13T09:04:52;24.10;99.90
1686;DHT22;840;47.980;7.830;2023-07-13T09:07:27;24.20;99.90
1686;DHT22;840;47.980;7.830;2023-07-13T09:10:07;24.10;99.90
1686;DHT22;840;47.980;7.830;2023-07-13T09:12:43;24.10;99.90
1686;DHT22;840;47.980;7.830;2023-07-13T09:15:24;24.10;99.90
1686;DHT22;840;47.980;7.830;2023-07-13T09:17:55;24.10;99.80
1686;DHT22;840;47.980;7.830;2023-07-13T09:20:27;24.10;99.00
1686;DHT22;840;47.980;7.830;2023-07-13T09:22:56;24.20;98.90
1686;DHT22;840;47.980;7.830;2023-07-13T09:25:30;24.40;99.40
1686;DHT22;840;47.980;7.830;2023-07-13T09:28:10;24.40;97.40
1686;DHT22;840;47.980;7.830;2023-07-13T09:30:45;24.30;96.90
1686;DHT22;840;47.980;7.830;2023-07-13T09:33:14;24.40;95.90
1686;DHT22;840;47.980;7.830;2023-07-13T09:35:41;24.40;94.50
1686;DHT22;840;47.980;7.830;2023-07-13T09:38:13;24.40;95.00
1686;DHT22;840;47.980;7.830;2023-07-13T09:40:47;24.40;95.30
1686;DHT22;840;47.980;7.830;2023-07-13T09:43:17;24.50;95.20
1686;DHT22;840;47.980;7.830;2023-07-13T09:45:46;24.50;95.20
1686;DHT22;840;47.980;7.830;2023-07-13T09:48:17;24.40;96.30
1686;DHT22;840;47.980;7.830;2023-07-13T09:50:44;24.50;96.80
1686;DHT22;840;47.980;7.830;2023-07-13T09:53:12;24.60;95.50
1686;DHT22;840;47.980;7.830;2023-07-13T09:55:40;24.60;94.60
1686;DHT22;840;47.980;7.830;2023-07-13T09:58:11;24.70;96.30
1686;DHT22;840;47.980;7.830;2023-07-13T10:00:39;24.80;97.00
1686;DHT22;840;47.980;7.830;2023-07-13T10:03:19;24.80;96.20
1686;DHT22;840;47.980;7.830;2023-07-13T10:05:47;24.90;96.00
1686;DHT22;840;47.980;7.830;2023-07-13T10:08:18;24.90;96.40
1686;DHT22;840;47.980;7.830;2023-07-13T10:10:45;25.00;96.10
1686;DHT22;840;47.980;7.830;2023-07-13T10:13:27;25.00;95.40
1686;DHT22;840;47.980;7.830;2023-07-13T10:16:09;24.90;95.40
1686;DHT22;840;47.980;7.830;2023-07-13T10:18:42;24.90;94.50
1686;DHT22;840;47.980;7.830;2023-07-13T10:21:13;25.00;95.80
1686;DHT22;840;47.980;7.830;2023-07-13T10:23:41;25.00;96.30
1686;DHT22;840;47.980;7.830;2023-07-13T10:26:13;25.00;95.20
1686;DHT22;840;47.980;7.830;2023-07-13T10:28:45;25.10;93.70
1686;DHT22;840;47.980;7.830;2023-07-13T10:31:27;25.10;93.70
1686;DHT22;840;47.980;7.830;2023-07-13T10:33:55;24.90;93.70
1686;DHT22;840;47.980;7.830;2023-07-13T10:36:32;24.80;92.70
1686;DHT22;840;47.980;7.830;2023-07-13T10:39:03;24.70;94.40
1686;DHT22;840;47.980;7.830;2023-07-13T10:41:33;24.80;93.40
1686;DHT22;840;47.980;7.830;2023-07-13T10:44:02;24.80;92.80
1686;DHT22;840;47.980;7.830;2023-07-13T10:46:30;25.00;95.10
1686;DHT22;840;47.980;7.830;2023-07-13T10:49:01;25.10;94.90
1686;DHT22;840;47.980;7.830;2023-07-13T10:51:30;25.30;94.30
1686;DHT22;840;47.980;7.830;2023-07-13T10:54:28;25.40;92.80
1686;DHT22;840;47.980;7.830;2023-07-13T10:57:16;25.40;93.10
1686;DHT22;840;47.980;7.830;2023-07-13T10:59:46;25.30;91.90
1686;DHT22;840;47.980;7.830;2023-07-13T11:02:25;25.10;91.10
1686;DHT22;840;47.980;7.830;2023-07-13T11:04:55;25.20;92.50
1686;DHT22;840;47.980;7.830;2023-07-13T11:07:25;25.30;91.70
1686;DHT22;840;47.980;7.830;2023-07-13T11:09:54;25.20;88.10
1686;DHT22;840;47.980;7.830;2023-07-13T11:12:49;25.30;90.20
1686;DHT22;840;47.980;7.830;2023-07-13T11:15:30;25.30;91.30
1686;DHT22;840;47.980;7.830;2023-07-13T11:18:03;25.30;91.80
1686;DHT22;840;47.980;7.830;2023-07-13T11:20:40;25.30;91.50
1686;DHT22;840;47.980;7.830;2023-07-13T11:23:29;25.30;91.50
1686;DHT22;840;47.980;7.830;2023-07-13T11:25:57;25.40;88.20
1686;DHT22;840;47.980;7.830;2023-07-13T11:28:27;25.40;87.50
1686;DHT22;840;47.980;7.830;2023-07-13T11:31:12;25.40;89.50
1686;DHT22;840;47.980;7.830;2023-07-13T11:33:59;25.40;90.20
1686;DHT22;840;47.980;7.830;2023-07-13T11:36:39;25.50;90.50
1686;DHT22;840;47.980;7.830;2023-07-13T11:39:18;25.50;91.40
1686;DHT22;840;47.980;7.830;2023-07-13T11:41:50;25.70;92.30
1686;DHT22;840;47.980;7.830;2023-07-13T11:44:20;25.80;91.10
1686;DHT22;840;47.980;7.830;2023-07-13T11:46:49;25.90;92.30
1686;DHT22;840;47.980;7.830;2023-07-13T11:49:18;25.90;91.60
1686;DHT22;840;47.980;7.830;2023-07-13T11:51:47;26.00;91.30
1686;DHT22;840;47.980;7.830;2023-07-13T11:54:24;26.00;90.20
1686;DHT22;840;47.980;7.830;2023-07-13T11:56:52;25.90;87.70
1686;DHT22;840;47.980;7.830;2023-07-13T11:59:19;26.00;88.60
1686;DHT22;840;47.980;7.830;2023-07-13T12:01:50;26.00;89.30
1686;DHT22;840;47.980;7.830;2023-07-13T12:04:22;26.10;90.30
1686;DHT22;840;47.980;7.830;2023-07-13T12:06:56;26.20;90.10
1686;DHT22;840;47.980;7.830;2023-07-13T12:09:27;26.30;89.30
1686;DHT22;840;47.980;7.830;2023-07-13T12:11:57;26.40;89.00
1686;DHT22;840;47.980;7.830;2023-07-13T12:14:24;26.50;88.90
1686;DHT22;840;47.980;7.830;2023-07-13T12:16:52;26.70;86.30
1686;DHT22;840;47.980;7.830;2023-07-13T12:19:22;26.80;87.10
1686;DHT22;840;47.980;7.830;2023-07-13T12:21:52;27.00;85.80
1686;DHT22;840;47.980;7.830;2023-07-13T12:24:21;27.10;86.50
1686;DHT22;840;47.980;7.830;2023-07-13T12:26:53;27.20;85.10
1686;DHT22;840;47.980;7.830;2023-07-13T12:29:20;27.30;85.00
1686;DHT22;840;47.980;7.830;2023-07-13T12:31:49;27.40;84.40
1686;DHT22;840;47.980;7.830;2023-07-13T12:34:19;27.60;82.60
1686;DHT22;840;47.980;7.830;2023-07-13T12:36:47;27.80;79.20
1686;DHT22;840;47.980;7.830;2023-07-13T12:39:18;27.80;80.10
1686;DHT22;840;47.980;7.830;2023-07-13T12:41:47;28.00;81.50
1686;DHT22;840;47.980;7.830;2023-07-13T12:44:17;28.20;81.00
1686;DHT22;840;47.980;7.830;2023-07-13T12:46:57;28.20;79.10
1686;DHT22;840;47.980;7.830;2023-07-13T12:49:30;28.10;77.90
1686;DHT22;840;47.980;7.830;2023-07-13T12:52:01;27.80;79.90
1686;DHT22;840;47.980;7.830;2023-07-13T12:54:29;27.80;79.20
1686;DHT22;840;47.980;7.830;2023-07-13T12:56:59;27.80;78.50
1686;DHT22;840;47.980;7.830;2023-07-13T12:59:31;28.00;78.00
1686;DHT22;840;47.980;7.830;2023-07-13T13:02:02;28.30;79.00
1686;DHT22;840;47.980;7.830;2023-07-13T13:04:30;28.40;74.60
1686;DHT22;840;47.980;7.830;2023-07-13T13:07:01;28.50;75.80
1686;DHT22;840;47.980;7.830;2023-07-13T13:09:28;28.60;76.30
1686;DHT22;840;47.980;7.830;2023-07-13T13:11:55;28.70;76.30
1686;DHT22;840;47.980;7.830;2023-07-13T13:14:23;28.90;76.20
1686;DHT22;840;47.980;7.830;2023-07-13T13:16:51;29.00;75.00
1686;DHT22;840;47.980;7.830;2023-07-13T13:19:21;28.90;74.60
1686;DHT22;840;47.980;7.830;2023-07-13T13:21:50;29.00;74.90
1686;DHT22;840;47.980;7.830;2023-07-13T13:24:20;29.00;76.70
1686;DHT22;840;47.980;7.830;2023-07-13T13:26:47;29.20;75.10
1686;DHT22;840;47.980;7.830;2023-07-13T13:29:16;29.30;74.80
1686;DHT22;840;47.980;7.830;2023-07-13T13:31:45;29.40;74.80
1686;DHT22;840;47.980;7.830;2023-07-13T13:34:14;29.40;70.70
1686;DHT22;840;47.980;7.830;2023-07-13T13:36:41;29.40;71.50
1686;DHT22;840;47.980;7.830;2023-07-13T13:39:18;29.30;71.10
1686;DHT22;840;47.980;7.830;2023-07-13T13:41:46;29.30;73.40
1686;DHT22;840;47.980;7.830;2023-07-13T13:44:14;29.10;71.10
1686;DHT22;840;47.980;7.830;2023-07-13T13:46:41;28.90;74.40
1686;DHT22;840;47.980;7.830;2023-07-13T13:49:14;28.80;77.10
1686;DHT22;840;47.980;7.830;2023-07-13T13:51:41;29.00;72.70
1686;DHT22;840;47.980;7.830;2023-07-13T13:54:12;29.00;73.60
1686;DHT22;840;47.980;7.830;2023-07-13T13:56:42;28.70;72.20
1686;DHT22;840;47.980;7.830;2023-07-13T13:59:09;28.60;75.40
1686;DHT22;840;47.980;7.830;2023-07-13T14:01:36;28.70;75.00
1686;DHT22;840;47.980;7.830;2023-07-13T14:04:03;29.10;77.20
1686;DHT22;840;47.980;7.830;2023-07-13T14:06:32;29.40;72.00
1686;DHT22;840;47.980;7.830;2023-07-13T14:08:59;29.60;71.70
1686;DHT22;840;47.980;7.830;2023-07-13T14:11:28;29.60;71.80
1686;DHT22;840;47.980;7.830;2023-07-13T14:13:59;29.40;71.40
1686;DHT22;840;47.980;7.830;2023-07-13T14:16:28;29.20;71.40
1686;DHT22;840;47.980;7.830;2023-07-13T14:18:57;29.00;74.60
1686;DHT22;840;47.980;7.830;2023-07-13T14:21:26;28.70;72.50
1686;DHT22;840;47.980;7.830;2023-07-13T14:23:54;28.40;74.00
1686;DHT22;840;47.980;7.830;2023-07-13T14:26:23;28.30;74.50
1686;DHT22;840;47.980;7.830;2023-07-13T14:28:53;28.00;74.20
1686;DHT22;840;47.980;7.830;2023-07-13T14:31:21;27.80;74.00
1686;DHT22;840;47.980;7.830;2023-07-13T14:33:49;27.40;74.70
1686;DHT22;840;47.980;7.830;2023-07-13T14:36:27;27.30;76.80
1686;DHT22;840;47.980;7.830;2023-07-13T14:38:57;27.00;77.20
1686;DHT22;840;47.980;7.830;2023-07-13T14:41:24;26.80;78.10
1686;DHT22;840;47.980;7.830;2023-07-13T14:43:51;26.50;78.70
1686;DHT22;840;47.980;7.830;2023-07-13T14:46:28;26.50;78.60
1686;DHT22;840;47.980;7.830;2023-07-13T14:49:00;26.40;80.30
1686;DHT22;840;47.980;7.830;2023-07-13T14:51:29;26.40;80.70
1686;DHT22;840;47.980;7.830;2023-07-13T14:54:01;26.30;81.30
1686;DHT22;840;47.980;7.830;2023-07-13T14:56:29;26.40;80.80
1686;DHT22;840;47.980;7.830;2023-07-13T14:58:55;26.30;80.80
1686;DHT22;840;47.980;7.830;2023-07-13T15:01:23;26.30;80.20
1686;DHT22;840;47.980;7.830;2023-07-13T15:03:52;26.30;80.70
1686;DHT22;840;47.980;7.830;2023-07-13T15:06:53;26.40;80.50
1686;DHT22;840;47.980;7.830;2023-07-13T15:09:21;26.40;80.80
1686;DHT22;840;47.980;7.830;2023-07-13T15:11:49;26.50;80.20
1686;DHT22;840;47.980;7.830;2023-07-13T15:14:16;26.70;81.50
1686;DHT22;840;47.980;7.830;2023-07-13T15:16:44;27.00;80.40
1686;DHT22;840;47.980;7.830;2023-07-13T15:19:11;27.40;80.00
1686;DHT22;840;47.980;7.830;2023-07-13T15:21:38;27.90;78.70
1686;DHT22;840;47.980;7.830;2023-07-13T15:24:05;28.60;79.20
1686;DHT22;840;47.980;7.830;2023-07-13T15:26:35;29.20;75.20
1686;DHT22;840;47.980;7.830;2023-07-13T15:29:02;29.60;72.60
1686;DHT22;840;47.980;7.830;2023-07-13T15:31:29;29.90;71.00
1686;DHT22;840;47.980;7.830;2023-07-13T15:33:57;30.10;70.00
1686;DHT22;840;47.980;7.830;2023-07-13T15:36:26;30.30;70.20
1686;DHT22;840;47.980;7.830;2023-07-13T15:38:54;30.70;69.40
1686;DHT22;840;47.980;7.830;2023-07-13T15:41:24;31.00;66.30
1686;DHT22;840;47.980;7.830;2023-07-13T15:43:55;31.00;66.30
1686;DHT22;840;47.980;7.830;2023-07-13T15:46:23;30.50;66.70
1686;DHT22;840;47.980;7.830;2023-07-13T15:48:50;30.30;67.30
1686;DHT22;840;47.980;7.830;2023-07-13T15:51:23;30.20;67.70
1686;DHT22;840;47.980;7.830;2023-07-13T15:53:52;29.80;67.60
1686;DHT22;840;47.980;7.830;2023-07-13T15:56:22;29.70;67.70
1686;DHT22;840;47.980;7.830;2023-07-13T15:58:50;29.90;66.00
1686;DHT22;840;47.980;7.830;2023-07-13T16:01:18;30.20;66.60
1686;DHT22;840;47.980;7.830;2023-07-13T16:03:46;30.30;66.10
1686;DHT22;840;47.980;7.830;2023-07-13T16:06:14;30.30;65.00
1686;DHT22;840;47.980;7.830;2023-07-13T16:08:42;30.20;64.90
1686;DHT22;840;47.980;7.830;2023-07-13T16:11:16;30.00;64.60
1686;DHT22;840;47.980;7.830;2023-07-13T16:13:44;29.20;64.60
1686;DHT22;840;47.980;7.830;2023-07-13T16:16:22;28.70;66.40
1686;DHT22;840;47.980;7.830;2023-07-13T16:18:52;28.20;66.90
1686;DHT22;840;47.980;7.830;2023-07-13T16:21:23;27.80;67.80
1686;DHT22;840;47.980;7.830;2023-07-13T16:23:50;27.80;68.70
1686;DHT22;840;47.980;7.830;2023-07-13T16:26:27;27.70;69.80
1686;DHT22;840;47.980;7.830;2023-07-13T16:28:54;27.70;70.10
1686;DHT22;840;47.980;7.830;2023-07-13T16:31:30;27.80;71.40